Time;durP1;ratioP1;P1;durP2;ratioP2;P2;SDS_P1;SDS_P2;PMS_P1;PMS_P2;Temp;Humidity;BMP_temperature;BMP_pressure;BME280_temperature;BME280_humidity;BME280_pressure;Samples;Min_cycle;Max_cycle;Signal;HPM_P1;HPM_P2
2021/09/26 00:01:37;;;;;;;7.18;1.55;;;;;;;23.41;61.16;100587.06;5025714;28;20041;-68
2021/09/26 00:04:03;;;;;;;3.17;1.50;;;;;;;23.40;60.97;100575.56;5010284;28;20044;-66
2021/09/26 00:06:29;;;;;;;6.97;1.40;;;;;;;23.41;61.37;100574.50;5011560;28;20417;-68
2021/09/26 00:08:55;;;;;;;4.60;1.17;;;;;;;23.42;61.20;100578.00;5019405;28;20116;-69
2021/09/26 00:11:21;;;;;;;3.03;1.30;;;;;;;23.42;61.24;100575.31;5012291;28;20112;-70
2021/09/26 00:13:46;;;;;;;3.70;1.50;;;;;;;23.42;61.25;100572.63;5011689;28;20091;-69
2021/09/26 00:16:12;;;;;;;4.03;1.30;;;;;;;23.41;61.39;100568.34;5029324;28;20033;-70
2021/09/26 00:18:38;;;;;;;3.40;1.02;;;;;;;23.42;61.18;100567.28;4994055;28;20427;-69
2021/09/26 00:21:04;;;;;;;1.88;1.00;;;;;;;23.42;61.00;100567.28;5010014;28;20037;-70
2021/09/26 00:23:32;;;;;;;2.65;1.40;;;;;;;23.40;61.19;100564.03;5009204;28;20049;-71
2021/09/26 00:25:59;;;;;;;2.67;1.20;;;;;;;23.41;61.25;100562.97;4990932;28;20132;-71
2021/09/26 00:28:24;;;;;;;2.25;1.13;;;;;;;23.40;61.23;100551.47;4990757;28;20034;-70
2021/09/26 00:30:50;;;;;;;4.60;1.52;;;;;;;23.39;61.50;100552.50;5008503;28;20534;-71
2021/09/26 00:33:16;;;;;;;4.05;1.20;;;;;;;23.41;61.52;100554.94;4991061;28;20127;-71
2021/09/26 00:35:42;;;;;;;1.67;1.08;;;;;;;23.41;61.49;100549.59;5008227;28;20066;-70
2021/09/26 00:38:08;;;;;;;2.38;1.20;;;;;;;23.40;61.31;100550.66;4991466;28;20041;-71
2021/09/26 00:40:35;;;;;;;4.75;1.98;;;;;;;23.41;61.47;100545.06;5010143;28;20037;-71
2021/09/26 00:43:00;;;;;;;3.00;1.10;;;;;;;23.41;61.16;100545.06;5009903;28;20057;-71
2021/09/26 00:45:26;;;;;;;2.63;1.00;;;;;;;23.40;61.41;100543.44;5009618;28;20504;-71
2021/09/26 00:47:52;;;;;;;3.10;1.40;;;;;;;23.40;61.60;100543.44;4992240;28;20044;-71
2021/09/26 00:50:19;;;;;;;3.67;1.10;;;;;;;23.40;61.21;100540.75;4992386;28;20057;-70
2021/09/26 00:52:47;;;;;;;1.70;1.17;;;;;;;23.42;61.17;100543.19;4992167;28;20042;-70
2021/09/26 00:55:13;;;;;;;1.60;1.00;;;;;;;23.41;61.06;100546.91;5010144;28;20045;-71
2021/09/26 00:57:44;;;;;;;2.72;1.13;;;;;;;23.39;61.19;100539.13;4991926;28;20046;-71
2021/09/26 01:00:13;;;;;;;4.63;1.10;;;;;;;23.41;61.32;100538.88;5010062;28;20038;-71
2021/09/26 01:02:40;;;;;;;3.20;1.00;;;;;;;23.40;61.45;100538.06;5029341;28;20033;-72
2021/09/26 01:05:08;;;;;;;3.05;1.15;;;;;;;23.41;61.67;100538.88;5011884;28;20477;-72
2021/09/26 01:07:42;;;;;;;1.80;1.08;;;;;;;23.39;61.58;100538.31;5029478;28;20044;-72
2021/09/26 01:10:23;;;;;;;4.32;1.15;;;;;;;23.38;61.49;100531.31;5029371;28;20029;-72
2021/09/26 01:13:18;;;;;;;2.20;1.13;;;;;;;23.37;61.43;100524.34;5028941;28;20029;-72
2021/09/26 01:16:12;;;;;;;2.42;1.10;;;;;;;23.36;61.57;100531.56;5028944;28;20037;-72
2021/09/26 01:19:10;;;;;;;1.50;1.02;;;;;;;23.38;61.43;100531.31;5028917;28;20414;-72
2021/09/26 01:21:44;;;;;;;2.72;1.15;;;;;;;23.39;61.42;100524.91;5018036;28;20052;-72
2021/09/26 01:24:31;;;;;;;2.65;1.10;;;;;;;23.35;61.61;100537.09;5029082;28;20060;-72
2021/09/26 01:27:18;;;;;;;2.63;1.20;;;;;;;23.35;61.60;100531.75;5028947;28;20057;-72
2021/09/26 01:30:13;;;;;;;2.28;0.90;;;;;;;23.37;61.57;100532.38;5028075;28;20041;-71
2021/09/26 01:32:44;;;;;;;3.42;1.20;;;;;;;23.39;61.69;100522.25;4987940;28;20042;-72
2021/09/26 01:35:10;;;;;;;1.55;1.10;;;;;;;23.40;61.67;100522.00;5029193;28;20029;-72
2021/09/26 01:38:03;;;;;;;1.75;1.00;;;;;;;23.35;61.54;100521.03;5029108;28;20048;-72
2021/09/26 01:40:36;;;;;;;1.17;0.90;;;;;;;23.39;61.65;100514.22;5032025;28;20521;-72
2021/09/26 01:43:11;;;;;;;3.80;1.05;;;;;;;23.37;61.56;100514.44;5035359;28;20034;-72
2021/09/26 01:45:45;;;;;;;1.40;1.00;;;;;;;23.38;61.83;100518.75;5035409;28;20223;-72
2021/09/26 01:48:18;;;;;;;1.60;1.00;;;;;;;23.39;61.62;100512.34;5035631;28;20478;-72
2021/09/26 01:50:48;;;;;;;2.08;1.00;;;;;;;23.40;61.50;100502.47;5035719;28;20029;-72
2021/09/26 01:53:15;;;;;;;2.22;1.00;;;;;;;23.39;61.61;100504.31;5035805;28;20044;-72
2021/09/26 01:55:42;;;;;;;1.95;0.95;;;;;;;23.40;61.62;100508.63;5035480;28;20041;-73
2021/09/26 01:58:09;;;;;;;1.98;1.10;;;;;;;23.40;61.82;100505.94;5035199;28;20055;-71
2021/09/26 02:00:38;;;;;;;1.45;1.00;;;;;;;23.40;61.68;100499.78;5034627;28;20105;-68
2021/09/26 02:03:04;;;;;;;1.45;1.02;;;;;;;23.40;61.56;100499.78;5035509;28;20389;-72
2021/09/26 02:05:30;;;;;;;2.15;1.02;;;;;;;23.40;61.69;100495.25;5035797;28;20045;-72
2021/09/26 02:08:00;;;;;;;1.55;0.90;;;;;;;23.40;61.40;100497.91;5035403;28;20033;-72
2021/09/26 02:10:28;;;;;;;1.48;1.00;;;;;;;23.39;61.42;100493.63;5035842;28;20133;-72
2021/09/26 02:12:55;;;;;;;1.95;1.10;;;;;;;23.41;61.69;100496.06;5035036;28;20044;-71
2021/09/26 02:15:24;;;;;;;2.10;1.25;;;;;;;23.41;61.44;100490.69;5035174;28;20025;-72
2021/09/26 02:17:51;;;;;;;2.60;1.02;;;;;;;23.41;61.70;100493.38;5017663;28;20576;-71
2021/09/26 02:20:19;;;;;;;2.17;1.15;;;;;;;23.40;61.71;100489.06;5035524;28;20040;-72
2021/09/26 02:22:48;;;;;;;1.63;1.02;;;;;;;23.40;61.71;100494.44;5034656;28;20053;-72
2021/09/26 02:25:15;;;;;;;2.22;1.08;;;;;;;23.40;61.36;100489.88;5035355;28;20042;-72
2021/09/26 02:27:42;;;;;;;1.55;0.82;;;;;;;23.39;61.71;100492.81;5035597;28;20043;-72
2021/09/26 02:30:08;;;;;;;2.00;1.10;;;;;;;23.40;61.49;100491.75;5034750;28;20065;-71
2021/09/26 02:32:34;;;;;;;1.45;0.82;;;;;;;23.40;61.46;100495.25;5035649;28;20410;-72
2021/09/26 02:35:00;;;;;;;0.80;0.70;;;;;;;23.40;61.51;100494.44;5017122;28;20095;-72
2021/09/26 02:37:26;;;;;;;2.45;0.80;;;;;;;23.40;61.65;100491.75;5035793;28;20079;-72
2021/09/26 02:39:53;;;;;;;1.45;0.90;;;;;;;23.40;61.50;100481.03;5034765;28;20061;-72
2021/09/26 02:42:43;;;;;;;1.67;1.10;;;;;;;23.36;61.77;100482.56;5035657;28;20030;-71
2021/09/26 02:45:44;;;;;;;2.70;0.82;;;;;;;23.33;61.77;100469.59;5016891;28;20046;-71
2021/09/26 02:48:22;;;;;;;1.42;0.80;;;;;;;23.38;61.70;100467.06;5020793;28;20382;-72
2021/09/26 02:50:51;;;;;;;2.40;0.70;;;;;;;23.39;61.66;100456.13;5017375;28;20076;-71
2021/09/26 02:53:17;;;;;;;2.03;0.90;;;;;;;23.39;61.72;100461.50;5030898;28;20033;-72
2021/09/26 02:55:45;;;;;;;1.52;1.08;;;;;;;23.39;61.71;100449.97;5031946;28;20084;-72
2021/09/26 02:58:11;;;;;;;1.20;1.00;;;;;;;23.40;61.63;100454.28;5031744;28;20060;-72
2021/09/26 03:00:41;;;;;;;1.63;0.90;;;;;;;23.40;61.70;100454.28;5031212;28;20061;-68
2021/09/26 03:03:37;;;;;;;1.85;0.75;;;;;;;23.38;61.54;100465.22;5014202;28;20034;-72
2021/09/26 03:06:02;;;;;;;1.52;0.90;;;;;;;23.39;61.63;100453.47;5026980;28;20064;-72
2021/09/26 03:08:28;;;;;;;1.85;0.85;;;;;;;23.39;61.49;100448.09;5014010;28;20026;-72
2021/09/26 03:10:59;;;;;;;1.23;0.80;;;;;;;23.38;61.62;100440.31;5013718;28;20099;-71
2021/09/26 03:13:26;;;;;;;1.05;0.80;;;;;;;23.39;61.41;100447.28;5031269;28;20040;-71
2021/09/26 03:15:52;;;;;;;2.15;0.70;;;;;;;23.39;61.77;100441.94;5030697;28;20036;-72
2021/09/26 03:18:17;;;;;;;3.75;1.00;;;;;;;23.39;61.56;100439.25;5031445;28;20477;-71
2021/09/26 03:20:43;;;;;;;1.10;0.75;;;;;;;23.39;61.41;100444.63;5031424;28;20044;-72
2021/09/26 03:23:09;;;;;;;0.75;0.70;;;;;;;23.39;61.61;100453.47;5031508;28;20053;-71
2021/09/26 03:25:35;;;;;;;1.33;0.90;;;;;;;23.38;61.77;100443.81;5031484;28;20060;-71
2021/09/26 03:28:00;;;;;;;1.27;0.80;;;;;;;23.38;61.57;100446.47;5012781;28;20033;-72
2021/09/26 03:30:26;;;;;;;0.77;0.60;;;;;;;23.39;61.73;100441.94;5031222;28;20558;-72
2021/09/26 03:32:52;;;;;;;1.35;0.90;;;;;;;23.38;61.48;100430.41;5030966;28;20037;-72
2021/09/26 03:35:18;;;;;;;1.98;0.80;;;;;;;23.39;61.56;100425.88;5031319;28;20461;-71
2021/09/26 03:37:43;;;;;;;1.02;0.70;;;;;;;23.39;61.55;100423.19;5030936;28;20033;-71
2021/09/26 03:40:10;;;;;;;2.05;0.80;;;;;;;23.39;61.46;100418.66;5031238;28;20041;-71
2021/09/26 03:42:36;;;;;;;2.38;0.98;;;;;;;23.39;61.43;100420.53;5004081;28;20584;-71
2021/09/26 03:45:02;;;;;;;2.00;0.95;;;;;;;23.40;61.33;100414.13;5010982;28;20153;-72
2021/09/26 03:47:28;;;;;;;1.13;0.88;;;;;;;23.39;61.49;100417.84;5010443;28;20430;-71
2021/09/26 03:49:53;;;;;;;0.60;0.60;;;;;;;23.39;61.51;100412.50;5010834;28;20042;-72
2021/09/26 03:52:19;;;;;;;1.55;0.80;;;;;;;23.38;61.19;100417.03;4993672;28;20057;-71
2021/09/26 03:54:46;;;;;;;1.52;0.85;;;;;;;23.38;61.41;100421.56;5009470;28;20061;-71
2021/09/26 03:57:12;;;;;;;0.95;0.70;;;;;;;23.39;61.53;100426.69;5010030;28;20038;-71
2021/09/26 03:59:37;;;;;;;1.30;0.90;;;;;;;23.38;61.49;100422.38;5010133;28;20034;-71
2021/09/26 04:02:04;;;;;;;1.30;0.90;;;;;;;23.38;61.55;100427.75;5027312;28;20037;-72
2021/09/26 04:04:30;;;;;;;2.22;1.25;;;;;;;23.39;61.77;100439.25;5030328;28;20047;-71
2021/09/26 04:06:55;;;;;;;0.95;0.70;;;;;;;23.39;61.35;100439.25;5030453;28;20457;-72
2021/09/26 04:09:21;;;;;;;1.48;0.90;;;;;;;23.38;61.51;100432.28;5013158;28;20358;-72
2021/09/26 04:11:46;;;;;;;0.80;0.73;;;;;;;23.38;61.59;100434.97;5030449;28;20037;-72
2021/09/26 04:14:12;;;;;;;1.40;0.80;;;;;;;23.39;61.72;100433.91;5030420;28;20499;-71
2021/09/26 04:16:37;;;;;;;1.25;0.75;;;;;;;23.38;61.55;100430.41;5030282;28;20458;-72
2021/09/26 04:19:03;;;;;;;3.47;1.13;;;;;;;23.38;61.72;100424.25;5012262;28;20037;-72
2021/09/26 04:21:28;;;;;;;0.65;0.60;;;;;;;23.38;61.52;100424.25;5012519;28;20164;-71
2021/09/26 04:23:54;;;;;;;0.77;0.50;;;;;;;23.37;61.74;100425.31;5030151;28;20136;-72
2021/09/26 04:26:21;;;;;;;1.40;0.70;;;;;;;23.38;61.55;100413.53;4996273;28;20067;-71
2021/09/26 04:28:46;;;;;;;1.42;0.70;;;;;;;23.38;61.66;100413.53;5029792;28;20349;-72
2021/09/26 04:31:12;;;;;;;1.20;0.77;;;;;;;23.38;61.60;100413.53;5012436;28;20038;-70
2021/09/26 04:33:37;;;;;;;0.80;0.65;;;;;;;23.37;61.52;100406.56;5012428;28;20040;-71
2021/09/26 04:36:03;;;;;;;0.73;0.70;;;;;;;23.38;61.28;100402.84;4995917;28;20843;-72
2021/09/26 04:38:29;;;;;;;1.75;0.70;;;;;;;23.37;61.57;100404.69;5030326;28;20033;-71
2021/09/26 04:40:55;;;;;;;0.93;0.70;;;;;;;23.37;61.75;100395.84;5030246;28;20517;-72
2021/09/26 04:43:20;;;;;;;1.17;0.88;;;;;;;23.37;61.65;100399.34;5031201;28;20029;-72
2021/09/26 04:45:46;;;;;;;1.30;0.75;;;;;;;23.36;61.53;100381.66;5030980;28;20048;-72
2021/09/26 04:48:12;;;;;;;1.60;0.70;;;;;;;23.36;61.79;100378.97;5031663;28;20029;-71
2021/09/26 04:50:38;;;;;;;0.75;0.63;;;;;;;23.36;61.71;100370.94;5030908;28;20396;-71
2021/09/26 04:53:03;;;;;;;1.45;0.80;;;;;;;23.37;61.40;100369.91;5031109;28;20049;-71
2021/09/26 04:55:29;;;;;;;1.25;0.80;;;;;;;23.38;61.62;100376.06;5030033;28;20083;-71
2021/09/26 04:57:56;;;;;;;1.27;0.70;;;;;;;23.37;61.36;100366.41;5029338;28;20041;-71
2021/09/26 05:00:22;;;;;;;0.85;0.70;;;;;;;23.38;61.69;100365.38;5029328;28;20038;-71
2021/09/26 05:02:48;;;;;;;0.60;0.60;;;;;;;23.37;61.61;100369.09;5029339;28;20041;-72
2021/09/26 05:05:14;;;;;;;0.88;0.73;;;;;;;23.38;61.43;100362.69;5029590;28;20083;-70
2021/09/26 05:07:39;;;;;;;1.10;0.90;;;;;;;23.37;61.54;100361.06;5012091;28;20034;-71
2021/09/26 05:10:05;;;;;;;1.35;0.80;;;;;;;23.36;61.68;100360.25;5029502;28;20038;-71
2021/09/26 05:12:32;;;;;;;1.00;0.70;;;;;;;23.37;61.85;100361.88;5029534;28;20037;-71
2021/09/26 05:15:01;;;;;;;1.08;0.73;;;;;;;23.36;61.72;100346.88;5027725;28;20061;-71
2021/09/26 05:17:28;;;;;;;0.60;0.50;;;;;;;23.37;61.52;100345.81;4996851;28;20092;-71
2021/09/26 05:19:54;;;;;;;4.10;0.88;;;;;;;23.37;61.49;100337.78;5029138;28;20806;-71
2021/09/26 05:22:19;;;;;;;0.60;0.60;;;;;;;23.37;61.83;100345.00;5029323;28;20085;-71
2021/09/26 05:24:45;;;;;;;1.38;0.73;;;;;;;23.37;61.62;100332.44;5029675;28;20072;-68
2021/09/26 05:27:11;;;;;;;1.30;0.68;;;;;;;23.36;61.58;100344.19;5011742;28;20084;-71
2021/09/26 05:29:36;;;;;;;0.95;0.65;;;;;;;23.37;61.87;100342.31;5028973;28;20037;-70
2021/09/26 05:32:02;;;;;;;2.55;1.00;;;;;;;23.37;61.64;100343.13;5029263;28;20033;-71
2021/09/26 05:34:29;;;;;;;1.77;0.88;;;;;;;23.36;61.52;100330.81;5029501;28;20489;-71
2021/09/26 05:36:56;;;;;;;2.67;0.70;;;;;;;23.37;61.79;100343.13;5011275;28;20095;-70
2021/09/26 05:39:24;;;;;;;1.30;0.70;;;;;;;23.37;61.82;100347.69;5029214;28;20030;-71
2021/09/26 05:41:50;;;;;;;1.58;0.93;;;;;;;23.38;61.67;100344.75;5028928;28;20056;-71
2021/09/26 05:44:16;;;;;;;2.22;0.68;;;;;;;23.37;61.73;100343.13;5029031;28;20041;-71
2021/09/26 05:46:41;;;;;;;3.72;0.70;;;;;;;23.37;61.89;100347.69;5011239;28;20048;-71
2021/09/26 05:49:07;;;;;;;1.95;0.80;;;;;;;23.36;61.96;100354.91;5028834;28;20124;-70
2021/09/26 05:51:32;;;;;;;1.23;0.73;;;;;;;23.35;61.92;100342.53;5011563;28;20428;-71
2021/09/26 05:53:58;;;;;;;1.13;0.60;;;;;;;23.36;61.83;100346.88;5028770;28;20037;-71
2021/09/26 05:56:23;;;;;;;2.58;0.80;;;;;;;23.36;61.83;100346.06;5028959;28;20037;-71
2021/09/26 05:58:49;;;;;;;0.82;0.52;;;;;;;23.36;61.94;100336.16;5028597;28;20393;-71
2021/09/26 06:01:14;;;;;;;1.17;0.70;;;;;;;23.36;62.03;100340.69;5028230;28;20131;-70
2021/09/26 06:03:41;;;;;;;1.45;0.82;;;;;;;23.36;61.67;100330.81;5028895;28;20041;-71
2021/09/26 06:06:07;;;;;;;1.00;0.60;;;;;;;23.36;62.04;100333.47;5011421;28;20115;-71
2021/09/26 06:08:33;;;;;;;0.85;0.50;;;;;;;23.36;61.87;100332.66;5011349;28;20535;-71
2021/09/26 06:10:58;;;;;;;2.10;0.80;;;;;;;23.36;61.80;100327.31;4994771;28;20037;-71
2021/09/26 06:13:24;;;;;;;1.00;0.70;;;;;;;23.36;62.05;100330.00;5028449;28;20148;-71
2021/09/26 06:15:50;;;;;;;1.27;0.80;;;;;;;23.35;61.61;100329.16;5010690;28;20034;-71
2021/09/26 06:18:17;;;;;;;1.10;0.70;;;;;;;23.35;62.06;100329.16;5029138;28;20033;-71
2021/09/26 06:20:43;;;;;;;0.88;0.60;;;;;;;23.36;61.61;100335.34;5011636;28;20029;-71
2021/09/26 06:23:08;;;;;;;0.57;0.57;;;;;;;23.34;61.82;100329.38;5010810;28;20131;-70
2021/09/26 06:25:33;;;;;;;1.30;0.80;;;;;;;23.34;61.82;100329.38;5029237;28;20049;-71
2021/09/26 06:27:59;;;;;;;1.48;0.73;;;;;;;23.34;61.73;100342.75;5013890;28;20049;-71
2021/09/26 06:30:24;;;;;;;1.58;0.57;;;;;;;23.35;61.82;100341.72;5032454;28;20493;-71
2021/09/26 06:32:50;;;;;;;1.08;0.77;;;;;;;23.34;61.63;100340.09;5014498;28;20128;-71
2021/09/26 06:35:16;;;;;;;0.65;0.65;;;;;;;23.35;61.89;100339.03;5014681;28;20041;-70
2021/09/26 06:37:41;;;;;;;1.15;0.70;;;;;;;23.33;61.63;100341.94;5032394;28;20033;-72
2021/09/26 06:40:08;;;;;;;0.60;0.60;;;;;;;23.34;61.77;100332.06;5031927;28;20033;-72
2021/09/26 06:42:34;;;;;;;0.95;0.68;;;;;;;23.34;61.58;100324.03;5032446;28;20037;-70
2021/09/26 06:45:00;;;;;;;0.93;0.70;;;;;;;23.34;61.64;100324.03;5031200;28;20036;-71
2021/09/26 06:47:26;;;;;;;0.50;0.50;;;;;;;23.36;61.26;100330.00;5032292;28;20029;-70
2021/09/26 06:49:52;;;;;;;1.23;0.70;;;;;;;23.34;61.29;100316.00;5031975;28;20041;-71
2021/09/26 06:52:18;;;;;;;1.88;0.60;;;;;;;23.35;61.24;100318.44;5032209;28;20037;-71
2021/09/26 06:54:43;;;;;;;0.50;0.50;;;;;;;23.34;61.25;100316.00;5014193;28;20103;-70
2021/09/26 06:57:10;;;;;;;1.05;0.60;;;;;;;23.34;61.09;100316.00;5014258;28;20348;-70
2021/09/26 06:59:37;;;;;;;0.90;0.60;;;;;;;23.34;61.17;100313.31;5031616;28;20033;-71
2021/09/26 07:02:03;;;;;;;0.40;0.40;;;;;;;23.33;60.98;100309.03;5013821;28;20038;-70
2021/09/26 07:04:29;;;;;;;0.95;0.60;;;;;;;23.33;60.92;100303.66;5031972;28;20049;-70
2021/09/26 07:06:54;;;;;;;1.63;0.60;;;;;;;23.32;61.08;100318.91;5013875;28;20041;-71
2021/09/26 07:09:20;;;;;;;0.65;0.50;;;;;;;23.33;61.01;100322.41;5031808;28;20065;-71
2021/09/26 07:11:46;;;;;;;0.75;0.60;;;;;;;23.32;60.91;100329.63;5014135;28;20091;-71
2021/09/26 07:14:12;;;;;;;1.33;0.50;;;;;;;23.33;60.91;100330.44;5031587;28;20055;-70
2021/09/26 07:16:37;;;;;;;0.50;0.50;;;;;;;23.33;60.83;100341.94;5031392;28;20053;-71
2021/09/26 07:19:03;;;;;;;0.85;0.68;;;;;;;23.33;60.88;100336.59;5031633;28;20038;-71
2021/09/26 07:21:28;;;;;;;1.63;0.47;;;;;;;23.35;60.72;100339.03;4997273;28;20085;-70
2021/09/26 07:23:54;;;;;;;0.90;0.60;;;;;;;23.35;61.05;100333.69;5031503;28;20049;-69
2021/09/26 07:26:19;;;;;;;0.85;0.60;;;;;;;23.35;60.94;100339.84;5031988;28;20048;-75
2021/09/26 07:28:45;;;;;;;0.80;0.60;;;;;;;23.35;61.12;100329.16;5031127;28;20588;-74
2021/09/26 07:31:10;;;;;;;0.75;0.50;;;;;;;23.36;60.85;100309.41;4997504;28;20045;-75
2021/09/26 07:33:36;;;;;;;0.70;0.70;;;;;;;23.38;60.85;100323.34;4991880;28;20153;-73
2021/09/26 07:36:02;;;;;;;1.13;0.60;;;;;;;23.39;60.86;100316.13;5008933;28;20072;-74
2021/09/26 07:38:27;;;;;;;0.60;0.60;;;;;;;23.39;60.94;100327.66;5009572;28;20037;-77
2021/09/26 07:40:53;;;;;;;1.23;0.60;;;;;;;23.40;60.89;100333.81;5026696;28;20152;-76
2021/09/26 07:43:18;;;;;;;1.92;0.60;;;;;;;23.40;60.94;100331.97;5012048;28;20943;-75
2021/09/26 07:45:44;;;;;;;2.67;0.65;;;;;;;23.39;60.73;100330.34;5012334;28;20041;-69
2021/09/26 07:48:09;;;;;;;2.05;0.60;;;;;;;23.40;60.80;100325.78;4983565;28;20056;-69
2021/09/26 07:50:35;;;;;;;1.80;0.60;;;;;;;23.39;60.68;100327.66;5017322;28;20041;-71
2021/09/26 07:53:00;;;;;;;1.05;0.60;;;;;;;23.38;60.75;100333.25;5008336;28;20425;-71
2021/09/26 07:55:26;;;;;;;7.22;0.70;;;;;;;23.38;60.31;100333.25;5017482;28;20428;-70
2021/09/26 07:57:51;;;;;;;4.72;0.60;;;;;;;23.36;60.44;100340.69;4987001;28;20042;-66
2021/09/26 08:00:18;;;;;;;1.92;0.43;;;;;;;23.36;60.16;100335.34;5009174;28;20033;-70
2021/09/26 08:02:43;;;;;;;1.65;0.50;;;;;;;23.33;60.15;100330.44;5028037;28;20045;-69
2021/09/26 08:05:10;;;;;;;1.25;0.50;;;;;;;23.31;60.32;100339.50;5005598;28;20058;-69
2021/09/26 08:07:37;;;;;;;1.25;0.40;;;;;;;23.30;60.24;100335.22;5006881;28;20038;-72
2021/09/26 08:10:04;;;;;;;4.18;0.57;;;;;;;23.28;59.91;100333.81;5006662;28;20421;-69
2021/09/26 08:12:29;;;;;;;1.13;0.50;;;;;;;23.28;60.04;100320.44;5007400;28;20052;-71
2021/09/26 08:14:55;;;;;;;1.27;0.50;;;;;;;23.27;60.10;100342.91;5006926;28;20041;-69
2021/09/26 08:17:20;;;;;;;7.78;4.25;;;;;;;23.25;60.13;100332.44;5007513;28;20034;-69
2021/09/26 08:19:46;;;;;;;18.08;15.05;;;;;;;23.26;60.39;100341.25;5007620;28;20437;-70
2021/09/26 08:22:12;;;;;;;21.67;16.02;;;;;;;23.27;60.56;100337.53;5007455;28;20115;-71
2021/09/26 08:24:37;;;;;;;18.40;14.70;;;;;;;23.27;60.56;100350.91;4975587;28;20038;-70
2021/09/26 08:27:04;;;;;;;17.40;13.73;;;;;;;23.26;60.51;100354.66;5009230;28;20038;-71
2021/09/26 08:29:30;;;;;;;18.45;12.15;;;;;;;23.26;60.68;100346.63;5010180;28;20038;-72
2021/09/26 08:31:56;;;;;;;14.18;10.45;;;;;;;23.27;60.53;100342.91;5009112;28;20505;-71
2021/09/26 08:34:22;;;;;;;14.65;10.98;;;;;;;23.25;60.93;100348.47;5014223;28;20037;-73
2021/09/26 08:36:47;;;;;;;13.05;10.35;;;;;;;23.26;61.35;100342.09;4992506;28;20033;-70
2021/09/26 08:39:13;;;;;;;13.88;9.07;;;;;;;23.27;61.07;100345.56;5026743;28;20041;-71
2021/09/26 08:41:39;;;;;;;10.18;7.95;;;;;;;23.26;61.06;100331.38;5009071;28;20812;-69
2021/09/26 08:44:05;;;;;;;7.65;5.75;;;;;;;23.27;61.30;100338.34;5025508;28;20037;-72
2021/09/26 08:46:32;;;;;;;9.45;5.70;;;;;;;23.27;60.68;100342.91;4997017;28;20046;-69
2021/09/26 08:48:57;;;;;;;5.95;4.38;;;;;;;23.25;60.56;100332.44;4998249;28;20040;-67
2021/09/26 08:51:23;;;;;;;7.57;3.60;;;;;;;23.25;60.37;100336.97;5016698;28;20045;-68
2021/09/26 08:53:49;;;;;;;3.85;2.60;;;;;;;23.22;60.37;100343.59;4991274;28;20848;-70
2021/09/26 08:56:20;;;;;;;4.50;2.40;;;;;;;23.22;59.73;100348.13;4999150;28;20037;-72
2021/09/26 08:58:46;;;;;;;3.75;2.00;;;;;;;23.22;59.88;100340.09;5022182;28;20108;-71
2021/09/26 09:01:11;;;;;;;3.33;2.00;;;;;;;23.23;59.73;100341.75;5018524;28;20124;-67
2021/09/26 09:03:37;;;;;;;4.30;1.80;;;;;;;23.24;59.21;100343.38;5017273;28;20029;-73
2021/09/26 09:06:03;;;;;;;7.32;1.85;;;;;;;23.24;59.19;100346.84;5004931;28;20380;-73
2021/09/26 09:08:28;;;;;;;2.40;1.00;;;;;;;23.23;58.76;100341.75;4980386;28;20938;-69
2021/09/26 09:10:56;;;;;;;2.35;1.25;;;;;;;23.22;58.50;100340.09;4994021;28;20550;-69
2021/09/26 09:13:28;;;;;;;3.22;0.93;;;;;;;23.19;58.15;100340.53;5010554;28;20477;-70
2021/09/26 09:15:56;;;;;;;2.85;1.10;;;;;;;23.20;58.11;100331.50;5028989;28;20037;-68
2021/09/26 09:18:22;;;;;;;3.42;1.10;;;;;;;23.19;57.83;100325.31;5028127;28;20432;-67
2021/09/26 09:20:49;;;;;;;2.22;1.08;;;;;;;23.20;57.59;100335.00;5011061;28;20041;-70
2021/09/26 09:23:21;;;;;;;3.35;1.08;;;;;;;23.21;57.80;100322.44;5028002;28;20124;-70
2021/09/26 09:25:49;;;;;;;5.00;1.10;;;;;;;23.22;57.31;100329.41;5010358;28;20036;-74
2021/09/26 09:28:21;;;;;;;1.85;0.90;;;;;;;23.21;57.32;100333.94;5008380;28;20056;-70
2021/09/26 09:30:56;;;;;;;2.58;0.90;;;;;;;23.22;56.82;100324.06;5006611;28;20221;-69
2021/09/26 09:33:22;;;;;;;;;;;;;;;23.09;57.38;100317.06;5015779;28;20044;-67
2021/09/26 09:35:52;;;;;;;3.58;1.00;;;;;;;23.20;56.98;100320.78;5021336;28;19952;-68
2021/09/26 09:38:35;;;;;;;3.17;1.10;;;;;;;23.18;56.81;100326.34;5020744;28;20029;-67
2021/09/26 09:41:01;;;;;;;5.10;1.23;;;;;;;23.22;56.74;100319.50;4995443;28;20088;-69
2021/09/26 09:43:27;;;;;;;4.38;1.00;;;;;;;23.24;56.55;100314.75;5013971;28;20542;-70
2021/09/26 09:45:57;;;;;;;5.32;1.27;;;;;;;23.26;56.67;100320.66;5004881;28;20033;-70
2021/09/26 09:48:24;;;;;;;2.08;0.70;;;;;;;23.28;56.36;100323.13;5014257;28;20165;-70
2021/09/26 09:51:00;;;;;;;3.42;0.75;;;;;;;23.23;55.94;100321.13;5023223;28;20033;-69
2021/09/26 09:53:38;;;;;;;3.88;0.85;;;;;;;23.21;55.49;100293.00;5024935;28;20101;-68
2021/09/26 09:56:06;;;;;;;3.42;1.00;;;;;;;23.22;55.31;100294.63;5024633;28;20090;-69
2021/09/26 09:58:37;;;;;;;2.88;1.02;;;;;;;23.19;54.95;100285.16;5012595;28;20034;-69
2021/09/26 10:01:05;;;;;;;3.97;1.00;;;;;;;23.20;55.04;100292.19;5010009;28;20144;-68
2021/09/26 10:04:03;;;;;;;3.17;1.10;;;;;;;23.12;54.75;100287.16;5010821;28;20117;-70
2021/09/26 10:06:42;;;;;;;6.25;1.20;;;;;;;23.15;54.54;100281.34;5016884;28;20060;-78
2021/09/26 10:09:18;;;;;;;6.25;0.90;;;;;;;23.18;54.32;100304.94;5012720;28;20038;-79
2021/09/26 10:12:04;;;;;;;3.20;0.75;;;;;;;23.15;54.08;100296.59;5013272;28;20065;-75
2021/09/26 10:14:32;;;;;;;3.85;1.00;;;;;;;23.20;53.89;100300.19;5012529;28;20055;-74
2021/09/26 10:16:59;;;;;;;4.50;0.93;;;;;;;23.19;53.84;100313.78;4998553;28;20033;-73
2021/09/26 10:19:25;;;;;;;4.43;1.40;;;;;;;23.18;53.97;100304.13;5013905;28;20040;-78
2021/09/26 10:21:56;;;;;;;2.88;0.90;;;;;;;23.17;53.45;100289.13;5021911;28;20061;-79
2021/09/26 10:24:25;;;;;;;4.93;1.10;;;;;;;23.16;53.47;100312.41;5017780;28;20061;-79
2021/09/26 10:26:52;;;;;;;4.78;1.27;;;;;;;23.17;53.17;100292.63;5012716;28;20149;-72
2021/09/26 10:29:22;;;;;;;5.03;0.95;;;;;;;23.15;53.39;100278.66;5011970;28;20474;-74
2021/09/26 10:31:49;;;;;;;4.15;1.00;;;;;;;23.17;53.06;100273.88;5021669;28;20033;-76
2021/09/26 10:34:16;;;;;;;4.95;1.00;;;;;;;23.17;53.38;100283.78;5013879;28;20051;-78
2021/09/26 10:36:43;;;;;;;2.33;0.90;;;;;;;23.18;52.99;100277.38;5014794;28;20034;-76
2021/09/26 10:39:10;;;;;;;4.88;1.00;;;;;;;23.18;52.89;100278.19;5032836;28;20068;-69
2021/09/26 10:41:56;;;;;;;8.18;1.33;;;;;;;23.17;52.83;100284.59;5032364;28;20056;-70
2021/09/26 10:44:26;;;;;;;6.32;1.23;;;;;;;23.13;52.59;100280.75;5013255;28;20103;-69
2021/09/26 10:47:17;;;;;;;4.35;0.85;;;;;;;23.10;52.01;100272.38;5000515;28;20096;-70
2021/09/26 10:49:46;;;;;;;5.40;0.90;;;;;;;23.13;51.99;100272.72;5011335;28;20029;-69
2021/09/26 10:52:36;;;;;;;5.82;0.95;;;;;;;23.08;52.07;100274.50;5011728;28;20026;-69
2021/09/26 10:55:24;;;;;;;5.03;1.25;;;;;;;23.06;52.05;100288.09;5012341;28;20034;-70
2021/09/26 10:58:13;;;;;;;4.88;1.17;;;;;;;23.05;51.88;100280.31;5012009;28;20140;-67
2021/09/26 11:00:49;;;;;;;4.00;1.02;;;;;;;23.10;52.20;100281.22;5017567;28;20029;-69
2021/09/26 11:03:19;;;;;;;5.70;0.93;;;;;;;23.10;52.32;100291.94;5031369;28;20120;-67
2021/09/26 11:05:50;;;;;;;4.47;1.10;;;;;;;23.08;52.12;100288.69;5000844;28;20049;-67
2021/09/26 11:08:42;;;;;;;5.95;1.20;;;;;;;23.04;52.32;100289.34;5027798;28;20041;-67
2021/09/26 11:11:08;;;;;;;4.80;1.00;;;;;;;23.07;52.13;100268.31;5031843;28;20067;-67
2021/09/26 11:13:38;;;;;;;3.95;1.15;;;;;;;23.06;52.04;100266.69;5012419;28;20084;-67
2021/09/26 11:16:18;;;;;;;2.85;1.00;;;;;;;23.02;52.30;100260.97;5017873;28;20042;-66
2021/09/26 11:18:56;;;;;;;5.20;1.05;;;;;;;23.00;52.12;100255.03;5008580;28;20050;-67
2021/09/26 11:21:37;;;;;;;2.35;0.80;;;;;;;22.98;52.47;100269.72;5011086;28;20062;-67
2021/09/26 11:24:12;;;;;;;2.92;0.88;;;;;;;22.99;52.21;100242.72;4993438;28;20045;-67
2021/09/26 11:26:59;;;;;;;3.90;0.90;;;;;;;22.92;52.22;100244.72;4993359;28;20826;-67
2021/09/26 11:29:26;;;;;;;3.47;1.23;;;;;;;22.96;52.06;100245.88;4992508;28;20029;-67
2021/09/26 11:31:52;;;;;;;2.50;0.93;;;;;;;22.95;51.96;100249.59;5010802;28;20121;-67